Time;durP1;ratioP1;P1;durP2;ratioP2;P2;SDS_P1;SDS_P2;PMS_P1;PMS_P2;Temp;Humidity;BMP_temperature;BMP_pressure;BME280_temperature;BME280_humidity;BME280_pressure;Samples;Min_cycle;Max_cycle;Signal;HPM_P1;HPM_P2
2022/06/04 00:01:44;;;;;;;3.17;2.42;;;;;;;15.07;100.00;99116.50;4242001;33;20047;-71
2022/06/04 00:04:12;;;;;;;4.57;2.95;;;;;;;15.33;100.00;99151.66;4242953;33;20076;-71
2022/06/04 00:06:39;;;;;;;2.90;2.50;;;;;;;15.24;100.00;99149.50;4242756;33;20056;-73
2022/06/04 00:09:07;;;;;;;4.03;1.98;;;;;;;15.28;100.00;99151.69;4242401;33;20038;-73
2022/06/04 00:17:06;;;;;;;3.97;2.83;;;;;;;15.23;100.00;99138.94;4240712;33;20080;-72
2022/06/04 00:19:33;;;;;;;3.97;2.80;;;;;;;15.13;100.00;99137.09;4242638;33;20051;-71
2022/06/04 00:22:01;;;;;;;10.50;2.55;;;;;;;15.08;100.00;99128.97;4242428;33;20075;-72
2022/06/04 00:24:28;;;;;;;6.80;3.17;;;;;;;14.83;100.00;99068.31;4241234;33;20062;-72
2022/06/04 00:26:54;;;;;;;2.95;2.75;;;;;;;15.11;100.00;99122.16;4238566;33;20392;-73
2022/06/04 00:29:20;;;;;;;8.35;3.12;;;;;;;15.13;100.00;99115.41;4242373;33;20072;-73
2022/06/04 00:31:47;;;;;;;10.85;2.80;;;;;;;15.18;100.00;99118.06;4240776;33;20058;-73
2022/06/04 00:34:14;;;;;;;7.05;2.85;;;;;;;15.17;100.00;99121.91;4242656;33;20061;-73
2022/06/04 00:36:41;;;;;;;8.20;3.72;;;;;;;15.16;100.00;99119.47;4242287;33;20034;-73
2022/06/04 00:39:07;;;;;;;3.95;2.70;;;;;;;15.15;100.00;99118.63;4240187;33;20076;-73
2022/06/04 00:41:47;;;;;;;4.03;2.75;;;;;;;15.12;100.00;99119.19;4242455;33;20058;-72
2022/06/04 00:44:13;;;;;;;4.68;2.85;;;;;;;15.25;100.00;99124.03;4242421;33;20408;-72
2022/06/04 00:46:40;;;;;;;4.05;2.65;;;;;;;14.84;100.00;99080.00;4228912;33;20083;-74
2022/06/04 00:49:11;;;;;;;4.60;3.28;;;;;;;15.24;100.00;99122.38;4237801;33;20397;-73
2022/06/04 00:51:38;;;;;;;;;;;;;;;15.34;100.00;99118.00;4229492;33;20054;-73
2022/06/04 00:54:05;;;;;;;4.18;3.00;;;;;;;15.34;100.00;99124.25;4241816;33;19946;-73
2022/06/04 00:56:57;;;;;;;5.75;2.72;;;;;;;14.96;100.00;99090.50;4241772;33;20065;-73
2022/06/04 00:59:36;;;;;;;7.10;3.62;;;;;;;15.29;100.00;99112.62;4227548;34;20066;-73
2022/06/04 01:02:18;;;;;;;5.30;2.78;;;;;;;15.34;100.00;99120.72;4227255;34;20361;-73
2022/06/04 01:05:04;;;;;;;4.53;2.75;;;;;;;15.10;100.00;99069.84;4227880;34;20409;-73
2022/06/04 01:08:02;;;;;;;4.82;2.90;;;;;;;14.99;100.00;99068.28;4230354;33;20123;-74
2022/06/04 01:10:40;;;;;;;13.35;2.72;;;;;;;15.16;100.00;99066.03;4240022;33;20039;-73
2022/06/04 01:13:26;;;;;;;1.85;1.70;;;;;;;15.12;100.00;99053.28;4240977;33;20035;-73
2022/06/04 01:16:07;;;;;;;2.65;2.22;;;;;;;15.32;100.00;99074.09;4240988;33;20104;-73
2022/06/04 01:18:58;;;;;;;3.85;2.58;;;;;;;15.41;100.00;99084.06;4240629;33;20072;-73
2022/06/04 01:21:33;;;;;;;4.97;2.25;;;;;;;15.41;100.00;99083.25;4241190;33;20101;-72
2022/06/04 01:24:26;;;;;;;7.55;2.53;;;;;;;15.23;100.00;99088.22;4241874;33;20035;-72
2022/06/04 01:27:02;;;;;;;4.60;2.72;;;;;;;15.36;100.00;99086.00;4237031;33;20065;-72
2022/06/04 01:29:50;;;;;;;1.75;1.70;;;;;;;15.16;100.00;99047.03;4227515;34;20060;-72
2022/06/04 01:32:26;;;;;;;8.30;2.50;;;;;;;15.30;100.00;99046.41;4225722;34;20065;-72
2022/06/04 01:37:49;;;;;;;2.35;2.15;;;;;;;15.52;100.00;99084.00;4229166;33;20058;-73
2022/06/04 01:43:10;;;;;;;;;;;;;;;15.57;100.00;99065.78;4240470;33;20039;-73
2022/06/04 01:45:39;;;;;;;3.37;2.25;;;;;;;15.79;100.00;99067.28;4240679;33;19973;-73
2022/06/04 01:48:07;;;;;;;3.37;1.87;;;;;;;15.73;100.00;99073.81;4241329;33;20053;-73
2022/06/04 01:50:41;;;;;;;2.67;2.17;;;;;;;15.75;100.00;99072.44;4239676;33;20054;-73
2022/06/04 01:53:10;;;;;;;2.78;2.10;;;;;;;15.86;100.00;99062.34;4239860;33;20071;-73
2022/06/04 01:55:44;;;;;;;5.93;2.30;;;;;;;15.48;100.00;99007.78;4241437;33;20764;-73
2022/06/04 01:58:18;;;;;;;2.40;2.20;;;;;;;15.63;100.00;99017.69;4241146;33;20116;-72
2022/06/04 02:00:55;;;;;;;6.22;2.20;;;;;;;15.93;100.00;99057.41;4225465;34;20043;-73
2022/06/04 02:03:42;;;;;;;3.70;2.12;;;;;;;16.00;100.00;99039.97;4234310;33;20068;-73
2022/06/04 02:06:13;;;;;;;2.83;2.30;;;;;;;15.70;100.00;98998.38;4228181;33;20096;-72
2022/06/04 02:09:16;;;;;;;4.37;2.00;;;;;;;16.06;100.00;99044.25;4239885;33;20060;-72
2022/06/04 02:11:50;;;;;;;2.17;1.92;;;;;;;16.02;100.00;99043.19;4225885;34;20082;-73
2022/06/04 02:14:17;;;;;;;1.95;1.85;;;;;;;15.88;100.00;99016.72;4239787;33;20067;-72
2022/06/04 02:16:46;;;;;;;5.28;2.42;;;;;;;15.67;100.00;98998.94;4240476;33;20056;-72
2022/06/04 02:19:12;;;;;;;3.12;2.37;;;;;;;16.02;100.00;99037.75;4241164;33;20038;-72
2022/06/04 02:21:39;;;;;;;2.17;2.08;;;;;;;16.00;100.00;99034.53;4239653;33;20058;-72
2022/06/04 02:24:06;;;;;;;2.50;2.30;;;;;;;16.12;100.00;99026.81;4239724;33;20080;-72
2022/06/04 02:26:34;;;;;;;2.28;2.17;;;;;;;15.92;100.00;98995.22;4240770;33;20030;-72
2022/06/04 02:29:01;;;;;;;3.95;2.25;;;;;;;16.07;100.00;99027.69;4239098;33;20048;-72
2022/06/04 02:31:49;;;;;;;3.17;2.95;;;;;;;16.09;100.00;99032.81;4239627;33;20384;-72
2022/06/04 02:34:38;;;;;;;11.12;2.65;;;;;;;16.23;100.00;99028.34;4240640;33;20379;-72
2022/06/04 02:37:27;;;;;;;3.20;2.50;;;;;;;16.26;100.00;99027.78;4240454;33;20063;-71
2022/06/04 02:40:25;;;;;;;2.25;2.15;;;;;;;16.19;100.00;99013.69;4240628;33;20062;-72
2022/06/04 02:43:01;;;;;;;2.97;2.55;;;;;;;16.04;100.00;99013.88;4229530;33;20042;-73
2022/06/04 02:45:33;;;;;;;5.18;2.55;;;;;;;16.15;100.00;99020.81;4240513;33;20072;-72
2022/06/04 02:48:32;;;;;;;4.18;2.50;;;;;;;15.72;100.00;98952.78;4239414;33;20038;-73
2022/06/04 02:51:05;;;;;;;2.45;2.35;;;;;;;16.03;100.00;98985.09;4226320;34;20084;-73
2022/06/04 02:53:34;;;;;;;16.87;3.22;;;;;;;16.07;100.00;99002.44;4230103;33;20046;-72
2022/06/04 02:56:08;;;;;;;3.22;2.58;;;;;;;15.79;100.00;98958.69;4238638;33;20082;-74
2022/06/04 02:58:38;;;;;;;5.85;2.78;;;;;;;15.89;100.00;98969.47;4226910;33;20100;-72
2022/06/04 03:01:08;;;;;;;3.17;2.28;;;;;;;16.16;100.00;99011.56;4239749;33;20068;-72
2022/06/04 03:03:35;;;;;;;3.75;2.90;;;;;;;16.11;100.00;99014.31;4240514;33;20043;-72
2022/06/04 03:06:05;;;;;;;4.93;2.72;;;;;;;16.06;100.00;99008.97;4238110;33;20069;-71
2022/06/04 03:08:38;;;;;;;2.87;2.65;;;;;;;15.91;100.00;98978.13;4239913;33;20045;-72
2022/06/04 03:11:05;;;;;;;6.65;2.15;;;;;;;16.04;100.00;99003.00;4240047;33;20068;-72
2022/06/04 03:13:31;;;;;;;4.22;2.87;;;;;;;16.07;100.00;99022.25;4238575;33;20132;-73
2022/06/04 03:15:58;;;;;;;6.32;2.67;;;;;;;15.86;100.00;98986.34;4238244;33;20042;-72
2022/06/04 03:18:24;;;;;;;4.80;2.35;;;;;;;16.11;100.00;99019.75;4240011;33;20055;-71
2022/06/04 03:20:51;;;;;;;6.00;2.75;;;;;;;15.79;100.00;98974.97;4238961;33;20213;-71
2022/06/04 03:23:17;;;;;;;2.47;2.28;;;;;;;16.11;100.00;99006.19;4240011;33;20042;-71
2022/06/04 03:25:44;;;;;;;2.97;2.78;;;;;;;16.04;100.00;99009.25;4239622;33;20046;-71
2022/06/04 03:28:10;;;;;;;9.73;2.58;;;;;;;16.06;100.00;99000.81;4235976;33;20045;-71
2022/06/04 03:30:38;;;;;;;4.93;2.60;;;;;;;15.88;100.00;98967.03;4239376;33;20058;-72
2022/06/04 03:33:05;;;;;;;2.37;2.15;;;;;;;15.92;100.00;98968.91;4239779;33;20064;-72
2022/06/04 03:35:32;;;;;;;4.25;2.55;;;;;;;15.89;100.00;98964.03;4239909;33;20080;-73
2022/06/04 03:37:58;;;;;;;4.18;2.53;;;;;;;16.05;100.00;99000.00;4238405;33;20058;-74
2022/06/04 03:40:25;;;;;;;3.65;2.58;;;;;;;16.02;100.00;99016.03;4238426;33;20046;-72
2022/06/04 03:42:52;;;;;;;2.80;2.37;;;;;;;16.03;100.00;99017.66;4239964;33;20079;-72
2022/06/04 03:45:18;;;;;;;5.20;2.50;;;;;;;15.95;100.00;99014.47;4240296;33;20073;-73
2022/06/04 03:47:45;;;;;;;3.12;2.83;;;;;;;15.69;100.00;98975.06;4239607;33;20054;-72
2022/06/04 03:50:15;;;;;;;5.62;2.97;;;;;;;15.65;100.00;98968.56;4239652;33;20046;-72
2022/06/04 03:52:42;;;;;;;3.40;2.40;;;;;;;16.07;100.00;99014.09;4238222;33;20088;-72
2022/06/04 03:55:11;;;;;;;5.00;2.37;;;;;;;16.05;100.00;99016.31;4239901;33;20108;-73
2022/06/04 04:00:08;;;;;;;3.05;2.67;;;;;;;16.08;100.00;99009.47;4228457;33;20039;-72
2022/06/04 04:02:41;;;;;;;7.55;2.70;;;;;;;16.04;100.00;99003.00;4211578;34;20054;-72
2022/06/04 04:05:10;;;;;;;4.87;2.78;;;;;;;16.05;100.00;99001.87;4224529;34;20401;-72
2022/06/04 04:07:37;;;;;;;2.67;2.40;;;;;;;15.76;100.00;98956.53;4225858;34;20035;-72
2022/06/04 04:10:05;;;;;;;9.05;2.95;;;;;;;15.98;100.00;99000.31;4225626;34;20062;-74
2022/06/04 04:12:32;;;;;;;4.12;3.40;;;;;;;16.03;100.00;98990.50;4224944;34;20794;-73
2022/06/04 04:14:58;;;;;;;2.87;2.67;;;;;;;15.86;100.00;98993.66;4218885;34;20062;-72
2022/06/04 04:17:25;;;;;;;6.78;2.70;;;;;;;15.83;100.00;98994.22;4232749;33;20384;-72
2022/06/04 04:19:52;;;;;;;3.83;2.08;;;;;;;15.60;100.00;98951.25;4238627;33;20038;-71
2022/06/04 04:22:19;;;;;;;2.97;2.50;;;;;;;15.90;100.00;98990.06;4237707;33;20057;-72
2022/06/04 04:24:46;;;;;;;5.05;2.70;;;;;;;15.97;100.00;98982.44;4239078;33;20219;-71
2022/06/04 04:27:13;;;;;;;3.00;2.50;;;;;;;15.84;100.00;98999.38;4239181;33;20042;-71
2022/06/04 04:29:39;;;;;;;3.00;2.70;;;;;;;15.90;100.00;98981.94;4225669;33;20062;-73
2022/06/04 04:32:06;;;;;;;2.97;2.50;;;;;;;15.93;100.00;98992.22;4220981;33;20081;-75
2022/06/04 04:34:32;;;;;;;2.22;2.00;;;;;;;15.71;100.00;98945.72;4233827;33;20533;-73
2022/06/04 04:36:59;;;;;;;2.87;2.58;;;;;;;16.02;100.00;98983.47;4237885;33;20072;-74
2022/06/04 04:39:25;;;;;;;2.67;2.12;;;;;;;15.71;100.00;98941.09;4239625;33;20423;-73
2022/06/04 04:41:51;;;;;;;4.15;2.33;;;;;;;16.07;100.00;98994.28;4238427;33;20442;-74
2022/06/04 04:44:18;;;;;;;6.30;2.78;;;;;;;15.87;100.00;98959.97;4238680;33;20427;-73
2022/06/04 04:46:44;;;;;;;3.78;2.80;;;;;;;16.17;100.00;98996.88;4240418;33;20062;-72
2022/06/04 04:49:11;;;;;;;2.50;2.20;;;;;;;16.23;100.00;99001.19;4233177;33;20112;-73
2022/06/04 04:51:50;;;;;;;2.92;2.58;;;;;;;16.27;100.00;98990.53;4240746;33;20034;-73
2022/06/04 04:54:17;;;;;;;3.47;2.17;;;;;;;16.51;100.00;98999.53;4241252;33;20100;-72
2022/06/04 04:56:44;;;;;;;7.18;2.03;;;;;;;16.42;100.00;99000.41;4241440;33;20034;-73
2022/06/04 04:59:10;;;;;;;5.32;2.65;;;;;;;16.50;100.00;99005.25;4241615;33;20035;-73
2022/06/04 05:01:37;;;;;;;2.35;1.95;;;;;;;16.53;100.00;98996.50;4239791;33;20064;-74
2022/06/04 05:04:04;;;;;;;5.65;2.47;;;;;;;16.57;100.00;99002.97;4240713;33;20065;-72
2022/06/04 05:06:31;;;;;;;2.33;2.20;;;;;;;16.61;100.00;99004.03;4241564;33;20037;-73
2022/06/04 05:08:58;;;;;;;5.18;2.30;;;;;;;16.56;100.00;98993.22;4241921;33;20046;-73
2022/06/04 05:11:27;;;;;;;2.50;2.30;;;;;;;16.46;100.00;98963.44;4236430;33;20384;-72
2022/06/04 05:13:57;;;;;;;3.08;2.37;;;;;;;16.80;100.00;99000.50;4240073;33;20069;-72
2022/06/04 05:16:28;;;;;;;2.37;2.05;;;;;;;16.86;100.00;99019.25;4241043;33;20398;-72
2022/06/04 05:18:54;;;;;;;2.45;2.28;;;;;;;16.92;100.00;99009.09;4233848;33;20030;-72
2022/06/04 05:21:22;;;;;;;2.75;2.22;;;;;;;16.63;100.00;98974.63;4235877;33;20170;-72
2022/06/04 05:23:49;;;;;;;5.03;2.50;;;;;;;16.69;100.00;98978.91;4239671;33;20367;-73
2022/06/04 05:26:16;;;;;;;2.97;2.37;;;;;;;16.93;100.00;99013.44;4240481;33;20054;-73
2022/06/04 05:28:43;;;;;;;4.30;2.30;;;;;;;16.74;100.00;98971.78;4240891;33;20064;-73
2022/06/04 05:31:10;;;;;;;7.65;2.30;;;;;;;16.95;100.00;99008.50;4238485;33;20100;-73
2022/06/04 05:33:37;;;;;;;9.65;2.58;;;;;;;17.03;100.00;99002.41;4236499;33;20068;-75
2022/06/04 05:36:04;;;;;;;8.98;4.45;;;;;;;16.99;100.00;98979.66;4241300;33;20108;-74
2022/06/04 05:38:34;;;;;;;8.43;2.47;;;;;;;17.38;100.00;99023.97;4241383;33;20107;-72
2022/06/04 05:41:03;;;;;;;10.45;2.67;;;;;;;17.30;100.00;98984.63;4231651;33;20076;-73
2022/06/04 05:43:29;;;;;;;5.43;2.30;;;;;;;17.72;100.00;99018.25;4226039;33;20080;-73
2022/06/04 05:45:58;;;;;;;2.08;1.90;;;;;;;17.89;100.00;99023.19;4240355;33;20049;-73
2022/06/04 05:48:25;;;;;;;5.22;2.15;;;;;;;18.03;100.00;99012.34;4228563;33;20030;-73
2022/06/04 05:50:52;;;;;;;8.00;2.05;;;;;;;18.22;100.00;99031.34;4241090;33;20074;-74
2022/06/04 05:53:20;;;;;;;8.48;3.30;;;;;;;18.07;100.00;98991.56;4228462;33;20046;-74
2022/06/04 05:55:46;;;;;;;5.95;1.92;;;;;;;18.26;100.00;98993.41;4239483;33;20087;-74
2022/06/04 05:58:12;;;;;;;2.22;1.83;;;;;;;18.25;100.00;98991.78;4240551;33;20062;-73
2022/06/04 06:00:40;;;;;;;4.80;2.30;;;;;;;18.37;100.00;99000.28;4221046;33;20097;-74
2022/06/04 06:03:06;;;;;;;8.25;2.28;;;;;;;18.70;100.00;99046.53;4228399;33;20046;-73
2022/06/04 06:05:33;;;;;;;7.53;2.00;;;;;;;18.72;100.00;99047.03;4232986;33;20064;-74
2022/06/04 06:10:41;;;;;;;5.78;1.85;;;;;;;18.72;100.00;99043.50;4237679;33;20043;-74
2022/06/04 06:13:08;;;;;;;5.25;2.85;;;;;;;19.01;100.00;99040.47;4240533;33;20088;-74
2022/06/04 06:15:35;;;;;;;1.58;1.52;;;;;;;18.97;100.00;99044.91;4237928;33;20070;-73
2022/06/04 06:18:02;;;;;;;15.20;2.22;;;;;;;19.08;100.00;99053.72;4237655;33;20231;-73
2022/06/04 06:20:29;;;;;;;3.95;2.22;;;;;;;18.92;100.00;99015.81;4240169;33;20353;-73
2022/06/04 06:22:56;;;;;;;7.03;2.53;;;;;;;18.93;100.00;99017.44;4240307;33;20038;-74
2022/06/04 06:25:23;;;;;;;7.60;2.60;;;;;;;18.95;100.00;99019.88;4223905;33;20055;-74
2022/06/04 06:27:49;;;;;;;4.45;2.58;;;;;;;19.14;100.00;99045.09;4236105;33;20360;-74
2022/06/04 06:30:16;;;;;;;5.28;3.95;;;;;;;19.28;100.00;99063.37;4239362;33;20062;-74
2022/06/04 06:32:42;;;;;;;8.68;2.30;;;;;;;19.27;100.00;99053.56;4237732;33;20058;-74
2022/06/04 06:35:09;;;;;;;5.43;1.98;;;;;;;19.31;100.00;99065.50;4240500;33;20469;-74
2022/06/04 06:37:36;;;;;;;6.95;2.72;;;;;;;19.09;100.00;99028.84;4238803;33;20469;-74
2022/06/04 06:40:04;;;;;;;9.93;2.87;;;;;;;19.29;100.00;99067.72;4240430;33;20779;-75
2022/06/04 06:42:31;;;;;;;2.20;2.05;;;;;;;19.24;100.00;99064.00;4238562;33;20064;-75
2022/06/04 06:44:58;;;;;;;5.20;2.00;;;;;;;19.17;100.00;99065.53;4239044;33;20046;-75
2022/06/04 06:47:24;;;;;;;4.87;2.50;;;;;;;19.12;100.00;99068.38;4237526;33;20045;-75
2022/06/04 06:49:50;;;;;;;4.65;2.62;;;;;;;18.95;100.00;99036.25;4228186;33;20319;-75
2022/06/04 06:52:19;;;;;;;2.75;2.53;;;;;;;19.17;100.00;99070.97;4240053;33;20083;-75
2022/06/04 06:54:46;;;;;;;5.87;3.17;;;;;;;19.13;100.00;99072.69;4226061;33;20075;-74
2022/06/04 06:57:17;;;;;;;2.75;2.50;;;;;;;19.11;100.00;99077.66;4237146;33;20388;-74
2022/06/04 06:59:46;;;;;;;2.53;1.98;;;;;;;18.94;100.00;99040.06;4236104;33;20479;-74
2022/06/04 07:02:13;;;;;;;3.00;2.50;;;;;;;19.11;100.00;99078.47;4237430;33;20043;-74
2022/06/04 07:04:40;;;;;;;9.90;2.05;;;;;;;19.01;100.00;99074.03;4237025;33;20047;-74
2022/06/04 07:07:07;;;;;;;5.78;2.70;;;;;;;19.01;100.00;99074.03;4238606;33;20054;-74
2022/06/04 07:09:39;;;;;;;5.43;2.30;;;;;;;18.98;100.00;99079.28;4238270;33;20045;-76
2022/06/04 07:12:08;;;;;;;13.20;2.33;;;;;;;19.01;100.00;99067.78;4231935;33;20104;-74
2022/06/04 07:14:35;;;;;;;10.90;3.15;;;;;;;18.95;100.00;99074.44;4239490;33;20047;-74
2022/06/04 07:17:05;;;;;;;3.12;2.40;;;;;;;18.69;100.00;99047.66;4238828;33;20119;-75
2022/06/04 07:19:32;;;;;;;7.53;2.37;;;;;;;18.91;100.00;99063.34;4237900;33;20463;-76
2022/06/04 07:21:58;;;;;;;3.00;2.70;;;;;;;18.87;100.00;99057.69;4239156;33;20066;-75
2022/06/04 07:24:25;;;;;;;7.95;2.50;;;;;;;18.66;100.00;99029.16;4239872;33;20042;-75
2022/06/04 07:26:52;;;;;;;4.15;2.53;;;;;;;18.86;100.00;99049.81;4237551;33;20065;-76
2022/06/04 07:29:18;;;;;;;6.53;2.60;;;;;;;18.57;100.00;99026.34;4239078;33;20418;-75
2022/06/04 07:31:45;;;;;;;2.97;2.62;;;;;;;18.83;100.00;99067.53;4224245;33;20026;-74
2022/06/04 07:34:11;;;;;;;6.80;2.75;;;;;;;18.85;100.00;99076.25;4239162;33;20156;-76
2022/06/04 07:36:42;;;;;;;5.18;2.78;;;;;;;18.86;100.00;99075.16;4238847;33;20051;-76
2022/06/04 07:39:11;;;;;;;8.43;2.42;;;;;;;18.96;100.00;99086.97;4237911;33;20393;-76
2022/06/04 07:41:43;;;;;;;6.57;3.20;;;;;;;18.92;100.00;99085.94;4236196;33;20042;-76
2022/06/04 07:44:11;;;;;;;4.37;2.47;;;;;;;18.66;100.00;99053.69;4221576;33;20077;-76
2022/06/04 07:46:38;;;;;;;7.05;2.45;;;;;;;18.79;100.00;99093.00;4238204;33;20047;-76
2022/06/04 07:49:06;;;;;;;5.68;2.55;;;;;;;18.67;100.00;99096.22;4238942;33;20069;-76
2022/06/04 07:51:34;;;;;;;7.03;3.17;;;;;;;18.64;100.00;99083.19;4237275;33;20400;-77
2022/06/04 07:54:02;;;;;;;3.55;3.10;;;;;;;18.60;100.00;99090.34;4236244;33;20426;-76
2022/06/04 07:56:28;;;;;;;5.62;3.28;;;;;;;18.51;100.00;99093.78;4239444;33;20428;-76
2022/06/04 07:58:55;;;;;;;7.20;2.97;;;;;;;18.44;100.00;99098.81;4237048;33;20065;-75
2022/06/04 08:01:23;;;;;;;7.47;3.12;;;;;;;18.47;100.00;99091.94;4237079;33;20094;-76
2022/06/04 08:03:51;;;;;;;5.53;3.15;;;;;;;18.44;100.00;99079.72;4238351;33;20072;-75
2022/06/04 08:06:24;;;;;;;12.23;3.25;;;;;;;18.58;100.00;99103.50;4238905;33;20043;-75
2022/06/04 08:08:57;;;;;;;6.75;3.85;;;;;;;18.60;100.00;99095.81;4238140;33;20094;-74
2022/06/04 08:11:34;;;;;;;6.18;3.35;;;;;;;18.68;100.00;99103.28;4223443;33;20080;-73
2022/06/04 08:14:06;;;;;;;22.90;5.03;;;;;;;18.71;100.00;99110.88;4236534;33;20066;-75
2022/06/04 08:16:35;;;;;;;7.10;4.50;;;;;;;18.62;100.00;99107.22;4237315;33;20040;-74
2022/06/04 08:19:03;;;;;;;17.77;4.75;;;;;;;18.34;100.00;99072.53;4233094;33;20058;-74
2022/06/04 08:21:31;;;;;;;13.18;7.45;;;;;;;18.49;100.00;99112.38;4240659;33;20115;-73
2022/06/04 08:23:58;;;;;;;19.73;6.55;;;;;;;18.27;100.00;99079.50;4240833;33;20046;-73
2022/06/04 08:26:25;;;;;;;7.25;4.75;;;;;;;18.33;100.00;99119.19;4225107;33;20046;-72
2022/06/04 08:28:52;;;;;;;9.43;4.47;;;;;;;18.09;100.00;99082.00;4239633;33;20078;-75
2022/06/04 08:31:19;;;;;;;9.32;4.53;;;;;;;18.22;100.00;99124.00;4240369;33;20090;-74
2022/06/04 08:33:45;;;;;;;14.93;5.15;;;;;;;17.99;100.00;99109.37;4228083;33;20059;-74
2022/06/04 08:36:14;;;;;;;14.13;5.30;;;;;;;17.95;100.00;99108.38;4240584;33;20103;-73
2022/06/04 08:38:46;;;;;;;22.50;6.53;;;;;;;17.99;100.00;99114.84;4237224;33;20097;-75
2022/06/04 08:41:39;;;;;;;17.37;6.20;;;;;;;17.78;100.00;99120.56;4238764;33;20067;-74
2022/06/04 08:44:31;;;;;;;9.68;5.65;;;;;;;17.71;100.00;99111.97;4235341;33;20042;-74
2022/06/04 08:47:10;;;;;;;10.55;5.05;;;;;;;17.69;100.00;99105.97;4237891;33;20063;-73
2022/06/04 08:49:48;;;;;;;15.20;6.03;;;;;;;17.35;100.00;99068.91;4228095;33;20413;-73
2022/06/04 08:52:19;;;;;;;10.70;6.20;;;;;;;17.31;100.00;99075.22;4219670;33;20043;-73
2022/06/04 08:58:12;;;;;;;11.80;7.80;;;;;;;17.09;100.00;99108.44;4229530;33;20104;-73
2022/06/04 09:00:49;;;;;;;11.70;8.02;;;;;;;17.02;100.00;99109.63;4235768;33;20042;-72
2022/06/04 09:03:26;;;;;;;12.37;8.00;;;;;;;16.74;100.00;99066.94;4237368;33;20471;-73
2022/06/04 09:06:01;;;;;;;13.77;8.07;;;;;;;16.77;100.00;99090.81;4240747;33;20027;-73
2022/06/04 09:09:00;;;;;;;13.10;8.60;;;;;;;17.01;100.00;99113.44;4239164;33;20092;-74
2022/06/04 09:11:54;;;;;;;14.98;8.52;;;;;;;16.95;100.00;99090.09;4230312;33;20046;-75
2022/06/04 09:14:55;;;;;;;15.05;9.02;;;;;;;17.16;100.00;99120.59;4239681;33;20061;-74
2022/06/04 09:17:47;;;;;;;21.25;9.73;;;;;;;17.22;100.00;99124.06;4238537;33;20060;-76
2022/06/04 09:20:19;;;;;;;12.60;9.75;;;;;;;16.97;100.00;99096.06;4240980;33;20054;-74
2022/06/04 09:22:48;;;;;;;10.50;8.93;;;;;;;17.20;100.00;99131.69;4240663;33;20072;-73
2022/06/04 09:25:17;;;;;;;14.30;10.52;;;;;;;16.85;100.00;99106.53;4235227;33;20331;-75
2022/06/04 09:27:59;;;;;;;14.07;9.68;;;;;;;16.82;100.00;99104.38;4236896;33;20096;-74
2022/06/04 09:30:27;;;;;;;13.73;9.30;;;;;;;17.11;100.00;99139.69;4237751;33;20051;-75
2022/06/04 09:33:02;;;;;;;20.35;9.82;;;;;;;17.00;100.00;99132.75;4236725;33;20445;-75
2022/06/04 09:35:35;;;;;;;22.27;11.73;;;;;;;16.78;100.00;99098.69;4239418;33;20069;-74
2022/06/04 09:38:02;;;;;;;18.87;13.20;;;;;;;17.08;100.00;99134.03;4240141;33;20414;-74
2022/06/04 09:40:32;;;;;;;15.25;11.45;;;;;;;16.92;100.00;99142.34;4227797;33;20031;-74
2022/06/04 09:43:07;;;;;;;17.58;11.90;;;;;;;17.05;100.00;99149.00;4233761;33;20031;-74
2022/06/04 09:45:33;;;;;;;21.27;12.82;;;;;;;17.10;100.00;99137.25;4238741;33;20091;-75
2022/06/04 09:48:20;;;;;;;17.98;11.60;;;;;;;16.93;100.00;99133.09;4240381;33;20046;-74
2022/06/04 09:50:53;;;;;;;21.80;11.18;;;;;;;17.09;100.00;99130.19;4239758;33;20047;-74
2022/06/04 09:53:25;;;;;;;25.92;13.13;;;;;;;17.18;100.00;99117.56;4240527;33;20052;-74
2022/06/04 09:55:57;;;;;;;14.35;11.25;;;;;;;17.22;100.00;99118.63;4231551;33;20097;-75
2022/06/04 09:58:42;;;;;;;11.45;9.07;;;;;;;17.26;100.00;99119.63;4235813;33;20072;-74
2022/06/04 10:01:23;;;;;;;13.68;8.82;;;;;;;17.18;100.00;99112.97;4239319;33;20047;-74
2022/06/04 10:04:12;;;;;;;16.60;9.70;;;;;;;17.31;100.00;99127.75;4236467;33;20059;-77
2022/06/04 10:06:39;;;;;;;18.17;10.25;;;;;;;17.31;100.00;99126.94;4240063;33;20042;-79
2022/06/04 10:12:17;;;;;;;12.80;8.98;;;;;;;17.59;100.00;99122.47;4237710;33;20046;-75
2022/06/04 10:14:56;;;;;;;16.33;8.48;;;;;;;17.71;100.00;99120.12;4230432;33;20433;-74
2022/06/04 10:17:34;;;;;;;12.37;7.50;;;;;;;17.66;100.00;99079.34;4226740;33;20832;-73
2022/06/04 10:20:01;;;;;;;7.53;6.32;;;;;;;17.93;100.00;99116.84;4230159;33;20090;-73
2022/06/04 10:22:28;;;;;;;5.55;4.60;;;;;;;17.58;100.00;99083.56;4230767;33;20060;-74
2022/06/04 10:25:03;;;;;;;6.20;3.85;;;;;;;17.58;100.00;99109.97;4238021;33;20043;-74
2022/06/04 10:28:10;;;;;;;7.18;3.90;;;;;;;17.45;100.00;99094.37;4239686;33;20357;-74
2022/06/04 10:30:50;;;;;;;8.57;4.45;;;;;;;17.16;100.00;99059.94;4237694;33;20050;-74
2022/06/04 10:33:46;;;;;;;5.72;3.87;;;;;;;17.28;100.00;99087.53;4225655;33;20070;-75
2022/06/04 10:36:29;;;;;;;8.30;4.50;;;;;;;17.22;100.00;99045.16;4237974;33;20128;-75
2022/06/04 10:39:38;;;;;;;5.47;3.33;;;;;;;17.41;100.00;99078.63;4236631;33;20483;-75
2022/06/04 10:42:19;;;;;;;4.50;4.10;;;;;;;17.64;100.00;99084.28;4217106;33;20064;-74
2022/06/04 10:45:16;;;;;;;6.57;4.20;;;;;;;17.62;100.00;99089.22;4237515;33;20089;-76
2022/06/04 10:47:50;;;;;;;3.53;3.22;;;;;;;17.93;100.00;99097.78;4238317;33;20090;-75
2022/06/04 10:50:32;;;;;;;5.07;4.00;;;;;;;18.09;100.00;99109.25;4228615;33;20117;-78
2022/06/04 10:53:26;;;;;;;4.62;4.10;;;;;;;18.23;100.00;99103.00;4227829;33;20392;-74
2022/06/04 10:55:56;;;;;;;5.63;4.20;;;;;;;18.31;100.00;99102.31;4235065;33;20084;-75
2022/06/04 10:58:29;;;;;;;3.90;3.50;;;;;;;18.32;100.00;99063.06;4239588;33;21126;-75
2022/06/04 11:01:23;;;;;;;4.03;3.72;;;;;;;18.66;100.00;99089.16;4237129;33;20042;-74
2022/06/04 11:04:11;;;;;;;4.18;3.55;;;;;;;18.99;100.00;99103.53;4233959;33;20042;-74
2022/06/04 11:06:46;;;;;;;4.55;3.50;;;;;;;18.94;100.00;99059.16;4234081;33;20423;-74
2022/06/04 11:09:15;;;;;;;7.60;3.40;;;;;;;19.21;100.00;99099.25;4237285;33;20085;-72
2022/06/04 11:11:49;;;;;;;3.45;2.45;;;;;;;19.11;100.00;99100.28;4238949;33;20055;-72
2022/06/04 11:14:25;;;;;;;2.53;2.33;;;;;;;19.18;100.00;99078.87;4239234;33;20038;-73
2022/06/04 11:17:00;;;;;;;6.05;2.72;;;;;;;19.34;100.00;99097.66;4236720;33;20081;-72
2022/06/04 11:19:33;;;;;;;3.70;3.15;;;;;;;19.09;100.00;99064.31;4239554;33;20203;-73
2022/06/04 11:22:15;;;;;;;6.75;3.40;;;;;;;19.06;100.00;99054.00;4226799;33;20051;-73
2022/06/04 11:24:51;;;;;;;3.95;2.67;;;;;;;19.31;100.00;99104.53;4235560;33;20039;-72
2022/06/04 11:27:29;;;;;;;4.62;2.78;;;;;;;19.22;100.00;99089.97;4227562;33;20058;-73
2022/06/04 11:29:56;;;;;;;2.90;2.70;;;;;;;19.17;100.00;99088.16;4213117;33;20437;-74
2022/06/04 11:32:32;;;;;;;3.35;3.05;;;;;;;19.33;100.00;99117.87;4219402;33;20080;-73
2022/06/04 11:35:17;;;;;;;7.05;3.00;;;;;;;19.62;100.00;99113.97;4233884;33;20076;-73
2022/06/04 11:37:56;;;;;;;14.55;3.75;;;;;;;19.49;100.00;99116.41;4222316;33;20070;-74
2022/06/04 11:40:49;;;;;;;8.05;2.50;;;;;;;19.45;100.00;99109.97;4227783;33;20062;-74
2022/06/04 11:43:43;;;;;;;3.10;2.90;;;;;;;19.69;100.00;99114.34;4233865;33;20054;-74
2022/06/04 11:46:20;;;;;;;5.40;2.45;;;;;;;19.30;100.00;99074.81;4236101;33;20162;-73
2022/06/04 11:49:16;;;;;;;3.40;3.10;;;;;;;19.41;100.00;99076.19;4235689;33;20054;-73
2022/06/04 11:51:57;;;;;;;4.25;3.42;;;;;;;19.91;100.00;99119.06;4214476;33;20090;-76
2022/06/04 11:54:45;;;;;;;6.87;3.33;;;;;;;20.12;100.00;99111.19;4233659;33;20046;-74
2022/06/04 11:57:27;;;;;;;3.75;3.45;;;;;;;20.22;100.00;99110.91;4238948;33;20184;-73
2022/06/04 12:00:02;;;;;;;3.40;3.08;;;;;;;20.23;100.00;99109.81;4239107;33;20072;-74
2022/06/04 12:02:39;;;;;;;4.82;3.50;;;;;;;20.18;100.00;99104.44;4241424;33;20072;-74
2022/06/04 12:05:38;;;;;;;3.53;3.22;;;;;;;20.24;100.00;99110.63;4233714;33;20075;-74
2022/06/04 12:08:07;;;;;;;3.72;3.15;;;;;;;20.37;100.00;99108.91;4234126;33;20045;-74
2022/06/04 12:10:58;;;;;;;3.47;3.10;;;;;;;20.50;100.00;99110.75;4232637;33;20354;-74
2022/06/04 12:13:43;;;;;;;3.75;3.15;;;;;;;20.59;100.00;99108.06;4230108;33;20046;-75